sensor_id;sensor_type;location;lat;lon;timestamp;temperature;humidity
13744;DHT22;6943;52.368;9.966;2023-04-01T00:00:17;10.60;99.90
13744;DHT22;6943;52.368;9.966;2023-04-01T00:02:43;10.60;1.00
13744;DHT22;6943;52.368;9.966;2023-04-01T00:05:09;10.60;99.90
13744;DHT22;6943;52.368;9.966;2023-04-01T00:07:36;10.60;1.00
13744;DHT22;6943;52.368;9.966;2023-04-01T00:10:03;10.60;1.00
13744;DHT22;6943;52.368;9.966;2023-04-01T00:12:28;10.60;1.00
13744;DHT22;6943;52.368;9.966;2023-04-01T00:14:54;10.60;99.90
13744;DHT22;6943;52.368;9.966;2023-04-01T00:17:19;10.60;1.00
13744;DHT22;6943;52.368;9.966;2023-04-01T00:19:45;10.60;99.90
13744;DHT22;6943;52.368;9.966;2023-04-01T00:22:10;10.60;99.90
13744;DHT22;6943;52.368;9.966;2023-04-01T00:24:37;10.60;99.90
13744;DHT22;6943;52.368;9.966;2023-04-01T00:27:03;10.60;1.00
13744;DHT22;6943;52.368;9.966;2023-04-01T00:29:28;10.60;1.00
13744;DHT22;6943;52.368;9.966;2023-04-01T00:31:56;10.70;1.00
13744;DHT22;6943;52.368;9.966;2023-04-01T00:34:22;10.60;1.00
13744;DHT22;6943;52.368;9.966;2023-04-01T00:36:47;10.70;1.00
13744;DHT22;6943;52.368;9.966;2023-04-01T00:39:13;10.70;99.90
13744;DHT22;6943;52.368;9.966;2023-04-01T00:41:38;10.70;1.00
13744;DHT22;6943;52.368;9.966;2023-04-01T00:44:22;10.70;1.00
13744;DHT22;6943;52.368;9.966;2023-04-01T00:46:48;10.70;1.00
13744;DHT22;6943;52.368;9.966;2023-04-01T00:49:16;10.80;99.90
13744;DHT22;6943;52.368;9.966;2023-04-01T00:51:43;10.80;51.70
13744;DHT22;6943;52.368;9.966;2023-04-01T00:54:10;10.80;1.00
13744;DHT22;6943;52.368;9.966;2023-04-01T00:56:45;10.90;1.00
13744;DHT22;6943;52.368;9.966;2023-04-01T00:59:18;10.90;1.00
13744;DHT22;6943;52.368;9.966;2023-04-01T01:01:44;10.90;1.00
13744;DHT22;6943;52.368;9.966;2023-04-01T01:04:27;10.90;1.00
13744;DHT22;6943;52.368;9.966;2023-04-01T01:07:31;10.90;1.00
13744;DHT22;6943;52.368;9.966;2023-04-01T01:10:23;10.90;1.00
13744;DHT22;6943;52.368;9.966;2023-04-01T01:12:59;11.00;1.00
13744;DHT22;6943;52.368;9.966;2023-04-01T01:15:35;10.90;1.00
13744;DHT22;6943;52.368;9.966;2023-04-01T01:18:15;11.00;1.00
13744;DHT22;6943;52.368;9.966;2023-04-01T01:29:45;11.00;99.90
13744;DHT22;6943;52.368;9.966;2023-04-01T01:32:43;11.00;1.00
13744;DHT22;6943;52.368;9.966;2023-04-01T01:35:21;10.90;1.00
13744;DHT22;6943;52.368;9.966;2023-04-01T01:37:52;10.90;1.00
13744;DHT22;6943;52.368;9.966;2023-04-01T01:40:19;10.90;1.00
13744;DHT22;6943;52.368;9.966;2023-04-01T01:42:49;10.90;20.10
13744;DHT22;6943;52.368;9.966;2023-04-01T01:45:18;10.80;99.90
13744;DHT22;6943;52.368;9.966;2023-04-01T01:47:45;10.80;1.00
13744;DHT22;6943;52.368;9.966;2023-04-01T01:50:12;10.80;1.00
13744;DHT22;6943;52.368;9.966;2023-04-01T01:52:38;10.80;8.20
13744;DHT22;6943;52.368;9.966;2023-04-01T01:55:26;10.70;1.00
13744;DHT22;6943;52.368;9.966;2023-04-01T01:57:52;10.70;1.00
13744;DHT22;6943;52.368;9.966;2023-04-01T02:00:19;10.80;1.00
13744;DHT22;6943;52.368;9.966;2023-04-01T02:02:47;10.80;1.00
13744;DHT22;6943;52.368;9.966;2023-04-01T02:05:22;10.80;99.90
13744;DHT22;6943;52.368;9.966;2023-04-01T02:07:54;10.70;99.90
13744;DHT22;6943;52.368;9.966;2023-04-01T02:10:22;10.70;99.90
13744;DHT22;6943;52.368;9.966;2023-04-01T02:12:50;10.70;99.90
13744;DHT22;6943;52.368;9.966;2023-04-01T02:15:20;10.70;99.90
13744;DHT22;6943;52.368;9.966;2023-04-01T02:17:47;10.70;99.90
13744;DHT22;6943;52.368;9.966;2023-04-01T02:20:20;10.70;1.00
13744;DHT22;6943;52.368;9.966;2023-04-01T02:22:55;10.60;1.00
13744;DHT22;6943;52.368;9.966;2023-04-01T02:25:27;10.50;99.90
13744;DHT22;6943;52.368;9.966;2023-04-01T02:27:54;10.50;1.00
13744;DHT22;6943;52.368;9.966;2023-04-01T02:30:22;10.40;1.00
13744;DHT22;6943;52.368;9.966;2023-04-01T02:32:48;10.30;99.90
13744;DHT22;6943;52.368;9.966;2023-04-01T02:35:16;10.40;99.90
13744;DHT22;6943;52.368;9.966;2023-04-01T02:37:43;10.30;1.00
13744;DHT22;6943;52.368;9.966;2023-04-01T02:40:12;10.30;99.90
13744;DHT22;6943;52.368;9.966;2023-04-01T02:42:38;10.30;1.00
13744;DHT22;6943;52.368;9.966;2023-04-01T02:45:05;10.30;1.00
13744;DHT22;6943;52.368;9.966;2023-04-01T02:47:30;10.30;1.00
13744;DHT22;6943;52.368;9.966;2023-04-01T02:49:56;10.30;1.00
13744;DHT22;6943;52.368;9.966;2023-04-01T02:52:27;10.30;1.00
13744;DHT22;6943;52.368;9.966;2023-04-01T02:54:53;10.30;1.00
13744;DHT22;6943;52.368;9.966;2023-04-01T02:57:19;10.30;1.00
13744;DHT22;6943;52.368;9.966;2023-04-01T02:59:45;10.30;99.90
13744;DHT22;6943;52.368;9.966;2023-04-01T03:02:10;10.30;1.00
13744;DHT22;6943;52.368;9.966;2023-04-01T03:04:36;10.30;1.00
13744;DHT22;6943;52.368;9.966;2023-04-01T03:07:01;10.20;1.00
13744;DHT22;6943;52.368;9.966;2023-04-01T03:09:27;10.20;99.90
13744;DHT22;6943;52.368;9.966;2023-04-01T03:11:54;10.20;99.90
13744;DHT22;6943;52.368;9.966;2023-04-01T03:14:19;10.20;1.00
13744;DHT22;6943;52.368;9.966;2023-04-01T03:16:48;10.20;1.00
13744;DHT22;6943;52.368;9.966;2023-04-01T03:19:13;10.20;1.00
13744;DHT22;6943;52.368;9.966;2023-04-01T03:21:39;10.20;1.00
13744;DHT22;6943;52.368;9.966;2023-04-01T03:24:04;10.20;99.90
13744;DHT22;6943;52.368;9.966;2023-04-01T03:26:31;10.20;1.00
13744;DHT22;6943;52.368;9.966;2023-04-01T03:28:57;10.10;1.00
13744;DHT22;6943;52.368;9.966;2023-04-01T03:31:22;10.10;99.90
13744;DHT22;6943;52.368;9.966;2023-04-01T03:33:48;10.10;99.90
13744;DHT22;6943;52.368;9.966;2023-04-01T03:36:14;10.10;1.00
13744;DHT22;6943;52.368;9.966;2023-04-01T03:38:43;10.00;1.00
13744;DHT22;6943;52.368;9.966;2023-04-01T03:41:16;10.00;99.90
13744;DHT22;6943;52.368;9.966;2023-04-01T03:43:42;10.00;1.00
13744;DHT22;6943;52.368;9.966;2023-04-01T03:46:08;10.00;1.00
13744;DHT22;6943;52.368;9.966;2023-04-01T03:48:33;10.00;1.00
13744;DHT22;6943;52.368;9.966;2023-04-01T03:50:59;10.00;1.00
13744;DHT22;6943;52.368;9.966;2023-04-01T03:53:25;10.00;1.00
13744;DHT22;6943;52.368;9.966;2023-04-01T03:55:52;10.00;1.00
13744;DHT22;6943;52.368;9.966;2023-04-01T03:58:18;10.00;1.00
13744;DHT22;6943;52.368;9.966;2023-04-01T04:00:43;10.00;1.00
13744;DHT22;6943;52.368;9.966;2023-04-01T04:03:09;10.00;1.00
13744;DHT22;6943;52.368;9.966;2023-04-01T04:05:34;10.00;1.00
13744;DHT22;6943;52.368;9.966;2023-04-01T04:08:00;10.00;1.00
13744;DHT22;6943;52.368;9.966;2023-04-01T04:10:25;10.00;1.00
13744;DHT22;6943;52.368;9.966;2023-04-01T04:12:52;10.00;1.00
13744;DHT22;6943;52.368;9.966;2023-04-01T04:15:17;10.00;1.00
13744;DHT22;6943;52.368;9.966;2023-04-01T04:17:44;10.00;1.00
13744;DHT22;6943;52.368;9.966;2023-04-01T04:20:10;9.90;1.00
13744;DHT22;6943;52.368;9.966;2023-04-01T04:22:36;9.90;1.00
13744;DHT22;6943;52.368;9.966;2023-04-01T04:25:01;9.90;1.00
13744;DHT22;6943;52.368;9.966;2023-04-01T04:27:27;9.90;1.00
13744;DHT22;6943;52.368;9.966;2023-04-01T04:29:52;9.90;1.00
13744;DHT22;6943;52.368;9.966;2023-04-01T04:32:18;9.90;1.00
13744;DHT22;6943;52.368;9.966;2023-04-01T04:34:43;9.90;1.00
13744;DHT22;6943;52.368;9.966;2023-04-01T04:37:09;9.90;1.00
13744;DHT22;6943;52.368;9.966;2023-04-01T04:39:34;9.90;1.00
13744;DHT22;6943;52.368;9.966;2023-04-01T04:42:00;9.90;1.00
13744;DHT22;6943;52.368;9.966;2023-04-01T04:44:25;9.90;1.00
13744;DHT22;6943;52.368;9.966;2023-04-01T04:46:51;9.90;3.60
13744;DHT22;6943;52.368;9.966;2023-04-01T04:49:16;9.90;1.00
13744;DHT22;6943;52.368;9.966;2023-04-01T04:51:42;9.80;1.00
13744;DHT22;6943;52.368;9.966;2023-04-01T04:54:08;9.80;1.00
13744;DHT22;6943;52.368;9.966;2023-04-01T04:56:33;9.80;7.50
13744;DHT22;6943;52.368;9.966;2023-04-01T04:58:59;9.70;30.70
13744;DHT22;6943;52.368;9.966;2023-04-01T05:01:25;9.70;99.90
13744;DHT22;6943;52.368;9.966;2023-04-01T05:03:51;9.70;93.50
13744;DHT22;6943;52.368;9.966;2023-04-01T05:06:17;9.70;26.90
13744;DHT22;6943;52.368;9.966;2023-04-01T05:08:44;9.80;48.80
13744;DHT22;6943;52.368;9.966;2023-04-01T05:11:12;9.70;45.80
13744;DHT22;6943;52.368;9.966;2023-04-01T05:13:39;9.80;59.30
13744;DHT22;6943;52.368;9.966;2023-04-01T05:16:12;9.80;1.00
13744;DHT22;6943;52.368;9.966;2023-04-01T05:18:38;9.80;18.30
13744;DHT22;6943;52.368;9.966;2023-04-01T05:21:06;9.80;21.00
13744;DHT22;6943;52.368;9.966;2023-04-01T05:23:32;9.90;1.00
13744;DHT22;6943;52.368;9.966;2023-04-01T05:25:58;9.90;1.00
13744;DHT22;6943;52.368;9.966;2023-04-01T05:28:24;9.90;1.00
13744;DHT22;6943;52.368;9.966;2023-04-01T05:30:50;9.90;1.00
13744;DHT22;6943;52.368;9.966;2023-04-01T05:33:16;9.90;1.00
13744;DHT22;6943;52.368;9.966;2023-04-01T05:35:41;9.90;1.00
13744;DHT22;6943;52.368;9.966;2023-04-01T05:38:07;9.90;1.00
13744;DHT22;6943;52.368;9.966;2023-04-01T05:40:32;9.90;1.00
13744;DHT22;6943;52.368;9.966;2023-04-01T05:42:58;10.00;1.00
13744;DHT22;6943;52.368;9.966;2023-04-01T05:45:24;10.00;1.00
13744;DHT22;6943;52.368;9.966;2023-04-01T05:47:50;10.00;1.00
13744;DHT22;6943;52.368;9.966;2023-04-01T05:50:15;10.00;1.00
13744;DHT22;6943;52.368;9.966;2023-04-01T05:52:41;10.00;1.00
13744;DHT22;6943;52.368;9.966;2023-04-01T05:55:07;10.10;1.00
13744;DHT22;6943;52.368;9.966;2023-04-01T05:57:33;10.10;1.00
13744;DHT22;6943;52.368;9.966;2023-04-01T05:59:59;10.20;1.00
13744;DHT22;6943;52.368;9.966;2023-04-01T06:02:24;10.30;1.00
13744;DHT22;6943;52.368;9.966;2023-04-01T06:04:59;10.30;1.00
13744;DHT22;6943;52.368;9.966;2023-04-01T06:07:27;10.40;99.90
13744;DHT22;6943;52.368;9.966;2023-04-01T06:09:54;10.40;1.00
13744;DHT22;6943;52.368;9.966;2023-04-01T06:15:38;10.60;99.90
13744;DHT22;6943;52.368;9.966;2023-04-01T06:18:33;10.60;1.00
13744;DHT22;6943;52.368;9.966;2023-04-01T06:21:29;10.70;1.00
13744;DHT22;6943;52.368;9.966;2023-04-01T06:32:51;11.10;1.00
13744;DHT22;6943;52.368;9.966;2023-04-01T06:35:32;11.10;99.90
13744;DHT22;6943;52.368;9.966;2023-04-01T06:43:40;11.40;99.90
13744;DHT22;6943;52.368;9.966;2023-04-01T06:54:58;11.90;69.80
13744;DHT22;6943;52.368;9.966;2023-04-01T06:57:34;12.10;99.90
13744;DHT22;6943;52.368;9.966;2023-04-01T07:00:03;12.20;1.00
13744;DHT22;6943;52.368;9.966;2023-04-01T07:02:41;12.50;1.00
13744;DHT22;6943;52.368;9.966;2023-04-01T07:05:08;12.60;1.00
13744;DHT22;6943;52.368;9.966;2023-04-01T07:07:49;12.60;99.90
13744;DHT22;6943;52.368;9.966;2023-04-01T07:10:35;12.60;99.90
13744;DHT22;6943;52.368;9.966;2023-04-01T07:13:06;13.10;99.90
13744;DHT22;6943;52.368;9.966;2023-04-01T07:15:40;13.20;99.90
13744;DHT22;6943;52.368;9.966;2023-04-01T07:18:14;13.60;99.90
13744;DHT22;6943;52.368;9.966;2023-04-01T07:20:41;13.60;99.90
13744;DHT22;6943;52.368;9.966;2023-04-01T07:23:23;13.50;99.90
13744;DHT22;6943;52.368;9.966;2023-04-01T07:25:56;13.30;99.90
13744;DHT22;6943;52.368;9.966;2023-04-01T07:28:23;13.10;99.90
13744;DHT22;6943;52.368;9.966;2023-04-01T07:31:15;13.00;1.00
13744;DHT22;6943;52.368;9.966;2023-04-01T07:33:55;12.70;99.90
13744;DHT22;6943;52.368;9.966;2023-04-01T07:36:43;12.70;99.90
13744;DHT22;6943;52.368;9.966;2023-04-01T07:42:17;12.80;1.00
13744;DHT22;6943;52.368;9.966;2023-04-01T07:50:13;13.40;99.90
13744;DHT22;6943;52.368;9.966;2023-04-01T07:58:14;14.10;1.00
13744;DHT22;6943;52.368;9.966;2023-04-01T08:03:49;14.20;1.00
13744;DHT22;6943;52.368;9.966;2023-04-01T08:06:36;14.80;1.00
13744;DHT22;6943;52.368;9.966;2023-04-01T08:12:06;16.60;1.00
13744;DHT22;6943;52.368;9.966;2023-04-01T08:14:40;17.00;1.00
13744;DHT22;6943;52.368;9.966;2023-04-01T08:17:27;17.30;1.00
13744;DHT22;6943;52.368;9.966;2023-04-01T08:20:03;17.10;1.00
13744;DHT22;6943;52.368;9.966;2023-04-01T08:22:43;17.20;1.00
13744;DHT22;6943;52.368;9.966;2023-04-01T08:25:16;17.40;1.00
13744;DHT22;6943;52.368;9.966;2023-04-01T08:27:51;17.90;99.90
13744;DHT22;6943;52.368;9.966;2023-04-01T08:30:24;17.70;99.90
13744;DHT22;6943;52.368;9.966;2023-04-01T08:32:58;16.90;99.90
13744;DHT22;6943;52.368;9.966;2023-04-01T08:35:31;15.40;1.00
13744;DHT22;6943;52.368;9.966;2023-04-01T08:38:04;14.80;45.60
13744;DHT22;6943;52.368;9.966;2023-04-01T08:41:00;14.90;99.90
13744;DHT22;6943;52.368;9.966;2023-04-01T08:49:06;15.60;46.60
13744;DHT22;6943;52.368;9.966;2023-04-01T08:51:45;15.60;1.00
13744;DHT22;6943;52.368;9.966;2023-04-01T09:06:07;17.90;99.90
13744;DHT22;6943;52.368;9.966;2023-04-01T09:17:17;17.10;99.90
13744;DHT22;6943;52.368;9.966;2023-04-01T09:23:02;16.20;1.00
13744;DHT22;6943;52.368;9.966;2023-04-01T09:25:45;15.50;1.00
13744;DHT22;6943;52.368;9.966;2023-04-01T09:28:27;15.30;1.00
13744;DHT22;6943;52.368;9.966;2023-04-01T09:33:48;14.60;1.00
13744;DHT22;6943;52.368;9.966;2023-04-01T09:36:43;14.50;72.40
13744;DHT22;6943;52.368;9.966;2023-04-01T09:39:37;15.00;1.00
13744;DHT22;6943;52.368;9.966;2023-04-01T09:45:00;15.10;1.00
13744;DHT22;6943;52.368;9.966;2023-04-01T09:50:52;15.50;1.00
13744;DHT22;6943;52.368;9.966;2023-04-01T10:01:34;14.20;99.90
13744;DHT22;6943;52.368;9.966;2023-04-01T10:09:49;13.30;1.00
13744;DHT22;6943;52.368;9.966;2023-04-01T10:15:10;12.70;1.00
13744;DHT22;6943;52.368;9.966;2023-04-01T10:21:20;12.60;1.00
13744;DHT22;6943;52.368;9.966;2023-04-01T10:38:41;12.80;1.00
13744;DHT22;6943;52.368;9.966;2023-04-01T10:41:15;13.00;1.00
13744;DHT22;6943;52.368;9.966;2023-04-01T10:44:31;13.10;26.80
13744;DHT22;6943;52.368;9.966;2023-04-01T10:50:16;13.10;1.00
13744;DHT22;6943;52.368;9.966;2023-04-01T10:53:10;13.20;1.00
13744;DHT22;6943;52.368;9.966;2023-04-01T10:56:29;13.30;1.00
13744;DHT22;6943;52.368;9.966;2023-04-01T10:59:24;13.50;1.00
13744;DHT22;6943;52.368;9.966;2023-04-01T11:31:55;13.30;99.90
13744;DHT22;6943;52.368;9.966;2023-04-01T11:34:43;13.30;99.90
13744;DHT22;6943;52.368;9.966;2023-04-01T11:37:30;13.50;1.00
13744;DHT22;6943;52.368;9.966;2023-04-01T11:40:25;13.80;1.00
13744;DHT22;6943;52.368;9.966;2023-04-01T11:43:14;13.90;1.00
13744;DHT22;6943;52.368;9.966;2023-04-01T11:54:25;14.10;1.00
13744;DHT22;6943;52.368;9.966;2023-04-01T11:57:13;13.80;1.00
13744;DHT22;6943;52.368;9.966;2023-04-01T12:03:02;13.10;99.90
13744;DHT22;6943;52.368;9.966;2023-04-01T12:05:46;13.10;1.00
13744;DHT22;6943;52.368;9.966;2023-04-01T12:08:46;13.20;1.00
13744;DHT22;6943;52.368;9.966;2023-04-01T12:22:48;13.90;99.90
13744;DHT22;6943;52.368;9.966;2023-04-01T12:25:38;13.50;99.90
13744;DHT22;6943;52.368;9.966;2023-04-01T12:31:22;13.80;99.90
13744;DHT22;6943;52.368;9.966;2023-04-01T12:39:57;13.70;1.00
13744;DHT22;6943;52.368;9.966;2023-04-01T12:42:39;13.40;99.90
13744;DHT22;6943;52.368;9.966;2023-04-01T12:45:30;13.70;1.00
13744;DHT22;6943;52.368;9.966;2023-04-01T12:51:08;14.00;1.00
13744;DHT22;6943;52.368;9.966;2023-04-01T12:59:38;13.70;99.90
13744;DHT22;6943;52.368;9.966;2023-04-01T13:10:45;13.60;1.00
13744;DHT22;6943;52.368;9.966;2023-04-01T13:16:15;13.90;1.00
13744;DHT22;6943;52.368;9.966;2023-04-01T13:19:00;13.90;99.90
13744;DHT22;6943;52.368;9.966;2023-04-01T13:21:41;13.90;99.90
13744;DHT22;6943;52.368;9.966;2023-04-01T13:24:40;13.90;1.00
13744;DHT22;6943;52.368;9.966;2023-04-01T13:32:22;13.50;99.90
13744;DHT22;6943;52.368;9.966;2023-04-01T13:35:16;13.50;99.90
13744;DHT22;6943;52.368;9.966;2023-04-01T13:38:11;13.40;99.90
13744;DHT22;6943;52.368;9.966;2023-04-01T13:43:49;12.50;99.90
13744;DHT22;6943;52.368;9.966;2023-04-01T13:46:34;11.90;1.00
13744;DHT22;6943;52.368;9.966;2023-04-01T13:57:24;11.90;1.00
13744;DHT22;6943;52.368;9.966;2023-04-01T14:00:26;11.00;1.00
13744;DHT22;6943;52.368;9.966;2023-04-01T14:03:26;10.80;1.00
13744;DHT22;6943;52.368;9.966;2023-04-01T14:06:47;10.70;99.90
13744;DHT22;6943;52.368;9.966;2023-04-01T14:17:20;10.40;99.90
13744;DHT22;6943;52.368;9.966;2023-04-01T14:20:02;10.10;99.90
13744;DHT22;6943;52.368;9.966;2023-04-01T14:23:13;9.80;99.90
13744;DHT22;6943;52.368;9.966;2023-04-01T14:26:18;9.80;99.90
13744;DHT22;6943;52.368;9.966;2023-04-01T14:32:18;9.90;99.90
13744;DHT22;6943;52.368;9.966;2023-04-01T14:35:06;9.70;99.90
13744;DHT22;6943;52.368;9.966;2023-04-01T14:40:54;9.40;99.90
13744;DHT22;6943;52.368;9.966;2023-04-01T14:46:46;9.20;99.90
13744;DHT22;6943;52.368;9.966;2023-04-01T14:50:06;9.20;99.90
13744;DHT22;6943;52.368;9.966;2023-04-01T14:52:16;9.40;99.90
13744;DHT22;6943;52.368;9.966;2023-04-01T14:54:48;9.10;99.90
13744;DHT22;6943;52.368;9.966;2023-04-01T14:57:27;9.00;99.90
13744;DHT22;6943;52.368;9.966;2023-04-01T15:00:13;9.00;99.90
13744;DHT22;6943;52.368;9.966;2023-04-01T15:02:59;9.10;99.90
13744;DHT22;6943;52.368;9.966;2023-04-01T15:05:49;9.20;99.90
13744;DHT22;6943;52.368;9.966;2023-04-01T15:11:47;8.90;99.90
13744;DHT22;6943;52.368;9.966;2023-04-01T15:14:54;8.80;99.90
13744;DHT22;6943;52.368;9.966;2023-04-01T15:22:55;8.60;99.90
13744;DHT22;6943;52.368;9.966;2023-04-01T15:25:41;8.50;99.90
13744;DHT22;6943;52.368;9.966;2023-04-01T15:28:40;8.40;99.90
13744;DHT22;6943;52.368;9.966;2023-04-01T15:31:24;8.30;99.90
13744;DHT22;6943;52.368;9.966;2023-04-01T15:34:07;8.40;99.90
13744;DHT22;6943;52.368;9.966;2023-04-01T15:36:51;8.30;99.90
13744;DHT22;6943;52.368;9.966;2023-04-01T15:42:16;8.10;99.90
13744;DHT22;6943;52.368;9.966;2023-04-01T15:44:56;8.10;99.90
13744;DHT22;6943;52.368;9.966;2023-04-01T15:53:18;8.20;99.90
13744;DHT22;6943;52.368;9.966;2023-04-01T15:58:48;8.00;99.90
13744;DHT22;6943;52.368;9.966;2023-04-01T16:01:25;8.00;99.90
13744;DHT22;6943;52.368;9.966;2023-04-01T16:09:30;8.00;99.90
13744;DHT22;6943;52.368;9.966;2023-04-01T16:20:49;7.90;99.90
13744;DHT22;6943;52.368;9.966;2023-04-01T16:23:30;7.90;99.90
13744;DHT22;6943;52.368;9.966;2023-04-01T16:26:19;7.70;99.90
13744;DHT22;6943;52.368;9.966;2023-04-01T16:34:45;7.50;99.90
13744;DHT22;6943;52.368;9.966;2023-04-01T16:45:28;7.40;99.90
13744;DHT22;6943;52.368;9.966;2023-04-01T16:48:19;7.50;99.90
13744;DHT22;6943;52.368;9.966;2023-04-01T16:50:55;7.30;99.90
13744;DHT22;6943;52.368;9.966;2023-04-01T16:53:45;7.30;99.90
13744;DHT22;6943;52.368;9.966;2023-04-01T16:56:27;7.30;99.90
13744;DHT22;6943;52.368;9.966;2023-04-01T17:04:29;7.40;99.90
13744;DHT22;6943;52.368;9.966;2023-04-01T17:10:22;7.00;99.90
13744;DHT22;6943;52.368;9.966;2023-04-01T17:15:43;6.80;99.90
13744;DHT22;6943;52.368;9.966;2023-04-01T17:31:31;6.60;99.90
13744;DHT22;6943;52.368;9.966;2023-04-01T17:34:12;6.60;99.90
13744;DHT22;6943;52.368;9.966;2023-04-01T17:48:38;6.40;99.90
13744;DHT22;6943;52.368;9.966;2023-04-01T17:54:17;6.40;99.90
13744;DHT22;6943;52.368;9.966;2023-04-01T17:56:59;6.30;99.90
13744;DHT22;6943;52.368;9.966;2023-04-01T17:59:37;6.30;99.90
13744;DHT22;6943;52.368;9.966;2023-04-01T18:02:07;6.30;99.90
13744;DHT22;6943;52.368;9.966;2023-04-01T18:07:56;6.30;99.90
13744;DHT22;6943;52.368;9.966;2023-04-01T18:10:58;6.30;99.90
13744;DHT22;6943;52.368;9.966;2023-04-01T18:17:01;6.30;99.90
13744;DHT22;6943;52.368;9.966;2023-04-01T18:19:36;6.30;99.90
13744;DHT22;6943;52.368;9.966;2023-04-01T18:22:21;6.30;99.90
13744;DHT22;6943;52.368;9.966;2023-04-01T18:25:10;6.20;99.90
13744;DHT22;6943;52.368;9.966;2023-04-01T18:27:40;6.30;99.90
13744;DHT22;6943;52.368;9.966;2023-04-01T18:30:13;6.20;99.90
13744;DHT22;6943;52.368;9.966;2023-04-01T18:33:18;6.00;99.90
13744;DHT22;6943;52.368;9.966;2023-04-01T18:36:02;6.10;99.90
13744;DHT22;6943;52.368;9.966;2023-04-01T18:38:35;6.10;99.90
13744;DHT22;6943;52.368;9.966;2023-04-01T18:47:07;6.10;99.90
13744;DHT22;6943;52.368;9.966;2023-04-01T18:49:41;6.00;99.90
13744;DHT22;6943;52.368;9.966;2023-04-01T18:52:33;5.90;99.90
13744;DHT22;6943;52.368;9.966;2023-04-01T18:58:14;5.80;99.90
13744;DHT22;6943;52.368;9.966;2023-04-01T19:03:32;5.80;99.90
13744;DHT22;6943;52.368;9.966;2023-04-01T19:06:02;5.80;99.90
13744;DHT22;6943;52.368;9.966;2023-04-01T19:08:35;5.80;99.90
13744;DHT22;6943;52.368;9.966;2023-04-01T19:11:10;5.70;99.90
13744;DHT22;6943;52.368;9.966;2023-04-01T19:14:12;5.60;99.90
13744;DHT22;6943;52.368;9.966;2023-04-01T19:17:06;5.70;99.90
13744;DHT22;6943;52.368;9.966;2023-04-01T19:19:46;5.80;99.90
13744;DHT22;6943;52.368;9.966;2023-04-01T19:22:39;5.80;99.90
13744;DHT22;6943;52.368;9.966;2023-04-01T19:25:29;5.70;99.90
13744;DHT22;6943;52.368;9.966;2023-04-01T19:28:20;5.50;99.90
13744;DHT22;6943;52.368;9.966;2023-04-01T19:33:59;5.50;99.90
13744;DHT22;6943;52.368;9.966;2023-04-01T19:36:38;5.40;99.90
13744;DHT22;6943;52.368;9.966;2023-04-01T19:39:27;5.40;99.90
13744;DHT22;6943;52.368;9.966;2023-04-01T19:42:03;5.50;99.90
13744;DHT22;6943;52.368;9.966;2023-04-01T19:47:38;5.30;99.90
13744;DHT22;6943;52.368;9.966;2023-04-01T19:50:43;5.20;99.90
13744;DHT22;6943;52.368;9.966;2023-04-01T19:53:28;5.10;99.90
13744;DHT22;6943;52.368;9.966;2023-04-01T19:56:04;5.10;99.90
13744;DHT22;6943;52.368;9.966;2023-04-01T19:58:54;5.10;99.90
13744;DHT22;6943;52.368;9.966;2023-04-01T20:01:36;5.10;99.90
13744;DHT22;6943;52.368;9.966;2023-04-01T20:04:13;5.00;99.90
13744;DHT22;6943;52.368;9.966;2023-04-01T20:09:39;5.20;99.90
13744;DHT22;6943;52.368;9.966;2023-04-01T20:12:34;5.20;99.90
13744;DHT22;6943;52.368;9.966;2023-04-01T20:15:27;5.00;99.90
13744;DHT22;6943;52.368;9.966;2023-04-01T20:17:57;4.90;99.90
13744;DHT22;6943;52.368;9.966;2023-04-01T20:20:27;5.00;99.90
13744;DHT22;6943;52.368;9.966;2023-04-01T20:23:24;5.00;99.90
13744;DHT22;6943;52.368;9.966;2023-04-01T20:26:04;4.90;99.90
13744;DHT22;6943;52.368;9.966;2023-04-01T20:28:56;5.00;99.90
13744;DHT22;6943;52.368;9.966;2023-04-01T20:31:42;4.90;99.90
13744;DHT22;6943;52.368;9.966;2023-04-01T20:42:34;4.80;99.90
13744;DHT22;6943;52.368;9.966;2023-04-01T20:45:37;4.60;99.90
13744;DHT22;6943;52.368;9.966;2023-04-01T20:48:26;4.60;99.90
13744;DHT22;6943;52.368;9.966;2023-04-01T20:51:10;4.60;99.90
13744;DHT22;6943;52.368;9.966;2023-04-01T20:53:58;4.60;99.90
13744;DHT22;6943;52.368;9.966;2023-04-01T20:59:35;4.50;99.90
13744;DHT22;6943;52.368;9.966;2023-04-01T21:05:09;4.50;99.90
13744;DHT22;6943;52.368;9.966;2023-04-01T21:07:50;4.60;99.90
13744;DHT22;6943;52.368;9.966;2023-04-01T21:10:40;4.50;99.90
13744;DHT22;6943;52.368;9.966;2023-04-01T21:16:36;4.40;99.90
13744;DHT22;6943;52.368;9.966;2023-04-01T21:22:15;4.40;99.90
13744;DHT22;6943;52.368;9.966;2023-04-01T21:41:52;4.10;99.90
13744;DHT22;6943;52.368;9.966;2023-04-01T21:44:47;4.00;99.90
13744;DHT22;6943;52.368;9.966;2023-04-01T21:50:25;4.00;99.90
13744;DHT22;6943;52.368;9.966;2023-04-01T21:58:55;3.90;99.90
13744;DHT22;6943;52.368;9.966;2023-04-01T22:01:41;3.90;99.90
13744;DHT22;6943;52.368;9.966;2023-04-01T22:04:38;3.90;99.90
13744;DHT22;6943;52.368;9.966;2023-04-01T22:12:33;3.90;99.90
13744;DHT22;6943;52.368;9.966;2023-04-01T22:15:24;4.00;99.90
13744;DHT22;6943;52.368;9.966;2023-04-01T22:18:11;3.90;99.90
13744;DHT22;6943;52.368;9.966;2023-04-01T22:28:51;4.00;99.90
13744;DHT22;6943;52.368;9.966;2023-04-01T22:31:24;3.90;99.90
13744;DHT22;6943;52.368;9.966;2023-04-01T22:34:15;3.90;99.90
13744;DHT22;6943;52.368;9.966;2023-04-01T22:36:59;3.80;99.90
13744;DHT22;6943;52.368;9.966;2023-04-01T22:39:54;3.80;99.90
13744;DHT22;6943;52.368;9.966;2023-04-01T22:42:40;3.70;99.90
13744;DHT22;6943;52.368;9.966;2023-04-01T22:48:09;3.70;99.90
13744;DHT22;6943;52.368;9.966;2023-04-01T22:51:06;3.60;99.90
13744;DHT22;6943;52.368;9.966;2023-04-01T22:56:12;3.50;99.90
13744;DHT22;6943;52.368;9.966;2023-04-01T22:58:50;3.50;99.90
13744;DHT22;6943;52.368;9.966;2023-04-01T23:01:20;3.50;99.90
13744;DHT22;6943;52.368;9.966;2023-04-01T23:03:49;3.50;99.90
13744;DHT22;6943;52.368;9.966;2023-04-01T23:06:24;3.50;99.90
13744;DHT22;6943;52.368;9.966;2023-04-01T23:09:00;3.50;99.90
13744;DHT22;6943;52.368;9.966;2023-04-01T23:11:49;3.50;99.90
13744;DHT22;6943;52.368;9.966;2023-04-01T23:17:11;3.50;99.90
13744;DHT22;6943;52.368;9.966;2023-04-01T23:22:56;3.50;99.90
13744;DHT22;6943;52.368;9.966;2023-04-01T23:38:40;3.50;1.00
13744;DHT22;6943;52.368;9.966;2023-04-01T23:41:08;3.40;1.00
13744;DHT22;6943;52.368;9.966;2023-04-01T23:43:43;3.40;1.00
13744;DHT22;6943;52.368;9.966;2023-04-01T23:46:11;3.40;99.90
13744;DHT22;6943;52.368;9.966;2023-04-01T23:48:40;3.40;1.00
13744;DHT22;6943;52.368;9.966;2023-04-01T23:51:18;3.40;99.90
13744;DHT22;6943;52.368;9.966;2023-04-01T23:53:46;3.50;99.90
13744;DHT22;6943;52.368;9.966;2023-04-01T23:56:15;3.50;1.00
13744;DHT22;6943;52.368;9.966;2023-04-01T23:58:45;3.40;33.40
